sensor_id;sensor_type;location;lat;lon;timestamp;P1;durP1;ratioP1;P2;durP2;ratioP2
31596;SDS011;18201;50.978;7.034;2022-10-15T00:00:13;6.60;;;4.93;;
31596;SDS011;18201;50.978;7.034;2022-10-15T00:00:45;5.88;;;5.40;;
31596;SDS011;18201;50.978;7.034;2022-10-15T00:01:16;4.93;;;4.53;;
31596;SDS011;18201;50.978;7.034;2022-10-15T00:01:47;6.10;;;4.68;;
31596;SDS011;18201;50.978;7.034;2022-10-15T00:02:19;4.95;;;4.55;;
31596;SDS011;18201;50.978;7.034;2022-10-15T00:02:50;4.32;;;4.00;;
31596;SDS011;18201;50.978;7.034;2022-10-15T00:03:21;6.03;;;4.70;;
31596;SDS011;18201;50.978;7.034;2022-10-15T00:03:53;5.43;;;4.93;;
31596;SDS011;18201;50.978;7.034;2022-10-15T00:04:23;4.60;;;4.20;;
31596;SDS011;18201;50.978;7.034;2022-10-15T00:04:54;5.10;;;4.72;;
31596;SDS011;18201;50.978;7.034;2022-10-15T00:05:26;4.68;;;4.32;;
31596;SDS011;18201;50.978;7.034;2022-10-15T00:06:02;5.43;;;5.00;;
31596;SDS011;18201;50.978;7.034;2022-10-15T00:06:33;4.80;;;4.40;;
31596;SDS011;18201;50.978;7.034;2022-10-15T00:07:04;5.35;;;4.65;;
31596;SDS011;18201;50.978;7.034;2022-10-15T00:07:36;6.00;;;4.30;;
31596;SDS011;18201;50.978;7.034;2022-10-15T00:08:08;4.75;;;4.35;;
31596;SDS011;18201;50.978;7.034;2022-10-15T00:08:40;5.07;;;4.68;;
31596;SDS011;18201;50.978;7.034;2022-10-15T00:09:12;4.43;;;4.13;;
31596;SDS011;18201;50.978;7.034;2022-10-15T00:09:43;5.65;;;5.18;;
31596;SDS011;18201;50.978;7.034;2022-10-15T00:10:14;4.93;;;4.50;;
31596;SDS011;18201;50.978;7.034;2022-10-15T00:10:47;5.38;;;4.88;;
31596;SDS011;18201;50.978;7.034;2022-10-15T00:11:18;6.25;;;5.10;;
31596;SDS011;18201;50.978;7.034;2022-10-15T00:11:50;5.75;;;4.50;;
31596;SDS011;18201;50.978;7.034;2022-10-15T00:12:22;5.18;;;4.78;;
31596;SDS011;18201;50.978;7.034;2022-10-15T00:12:53;5.75;;;5.07;;
31596;SDS011;18201;50.978;7.034;2022-10-15T00:13:24;5.88;;;5.38;;
31596;SDS011;18201;50.978;7.034;2022-10-15T00:13:56;5.88;;;4.97;;
31596;SDS011;18201;50.978;7.034;2022-10-15T00:14:29;5.50;;;5.00;;
31596;SDS011;18201;50.978;7.034;2022-10-15T00:15:01;5.45;;;4.88;;
31596;SDS011;18201;50.978;7.034;2022-10-15T00:15:34;5.47;;;5.00;;
31596;SDS011;18201;50.978;7.034;2022-10-15T00:16:07;5.40;;;4.97;;
31596;SDS011;18201;50.978;7.034;2022-10-15T00:16:40;5.53;;;5.13;;
31596;SDS011;18201;50.978;7.034;2022-10-15T00:17:11;6.32;;;5.82;;
31596;SDS011;18201;50.978;7.034;2022-10-15T00:17:42;8.85;;;5.63;;
31596;SDS011;18201;50.978;7.034;2022-10-15T00:18:13;5.43;;;4.93;;
31596;SDS011;18201;50.978;7.034;2022-10-15T00:18:44;6.53;;;5.93;;
31596;SDS011;18201;50.978;7.034;2022-10-15T00:19:16;5.10;;;4.63;;
31596;SDS011;18201;50.978;7.034;2022-10-15T00:19:48;6.32;;;5.55;;
31596;SDS011;18201;50.978;7.034;2022-10-15T00:20:19;5.45;;;5.05;;
31596;SDS011;18201;50.978;7.034;2022-10-15T00:20:49;5.57;;;5.18;;
31596;SDS011;18201;50.978;7.034;2022-10-15T00:21:21;5.63;;;5.22;;
31596;SDS011;18201;50.978;7.034;2022-10-15T00:21:52;5.38;;;4.97;;
31596;SDS011;18201;50.978;7.034;2022-10-15T00:22:24;6.88;;;5.28;;
31596;SDS011;18201;50.978;7.034;2022-10-15T00:22:55;5.43;;;4.90;;
31596;SDS011;18201;50.978;7.034;2022-10-15T00:23:26;5.57;;;4.95;;
31596;SDS011;18201;50.978;7.034;2022-10-15T00:23:58;5.80;;;5.25;;
31596;SDS011;18201;50.978;7.034;2022-10-15T00:24:29;5.80;;;5.30;;
31596;SDS011;18201;50.978;7.034;2022-10-15T00:25:01;5.32;;;4.93;;
31596;SDS011;18201;50.978;7.034;2022-10-15T00:25:33;6.30;;;5.70;;
31596;SDS011;18201;50.978;7.034;2022-10-15T00:26:04;5.78;;;5.20;;
31596;SDS011;18201;50.978;7.034;2022-10-15T00:26:36;5.05;;;4.65;;
31596;SDS011;18201;50.978;7.034;2022-10-15T00:27:08;5.47;;;4.97;;
31596;SDS011;18201;50.978;7.034;2022-10-15T00:27:39;5.82;;;5.32;;
31596;SDS011;18201;50.978;7.034;2022-10-15T00:28:09;5.78;;;5.05;;
31596;SDS011;18201;50.978;7.034;2022-10-15T00:28:40;6.53;;;5.35;;
31596;SDS011;18201;50.978;7.034;2022-10-15T00:29:12;6.20;;;5.60;;
31596;SDS011;18201;50.978;7.034;2022-10-15T00:29:43;6.05;;;5.45;;
31596;SDS011;18201;50.978;7.034;2022-10-15T00:30:15;5.30;;;4.90;;
31596;SDS011;18201;50.978;7.034;2022-10-15T00:30:47;6.00;;;5.35;;
31596;SDS011;18201;50.978;7.034;2022-10-15T00:31:18;5.70;;;5.20;;
31596;SDS011;18201;50.978;7.034;2022-10-15T00:31:52;6.07;;;5.47;;
31596;SDS011;18201;50.978;7.034;2022-10-15T00:32:25;7.13;;;6.20;;
31596;SDS011;18201;50.978;7.034;2022-10-15T00:32:56;5.20;;;4.80;;
31596;SDS011;18201;50.978;7.034;2022-10-15T00:33:27;8.50;;;6.20;;
31596;SDS011;18201;50.978;7.034;2022-10-15T00:33:58;5.95;;;5.40;;
31596;SDS011;18201;50.978;7.034;2022-10-15T00:34:31;6.22;;;5.72;;
31596;SDS011;18201;50.978;7.034;2022-10-15T00:35:02;5.60;;;5.20;;
31596;SDS011;18201;50.978;7.034;2022-10-15T00:35:34;5.85;;;5.35;;
31596;SDS011;18201;50.978;7.034;2022-10-15T00:36:06;5.45;;;5.07;;
31596;SDS011;18201;50.978;7.034;2022-10-15T00:36:39;5.60;;;5.20;;
31596;SDS011;18201;50.978;7.034;2022-10-15T00:37:10;6.47;;;5.88;;
31596;SDS011;18201;50.978;7.034;2022-10-15T00:37:42;5.70;;;5.20;;
31596;SDS011;18201;50.978;7.034;2022-10-15T00:38:14;7.97;;;5.60;;
31596;SDS011;18201;50.978;7.034;2022-10-15T00:38:45;6.68;;;6.05;;
31596;SDS011;18201;50.978;7.034;2022-10-15T00:39:17;6.43;;;5.90;;
31596;SDS011;18201;50.978;7.034;2022-10-15T00:39:48;8.95;;;5.80;;
31596;SDS011;18201;50.978;7.034;2022-10-15T00:40:19;8.25;;;5.90;;
31596;SDS011;18201;50.978;7.034;2022-10-15T00:40:51;9.25;;;6.35;;
31596;SDS011;18201;50.978;7.034;2022-10-15T00:41:24;5.65;;;5.25;;
31596;SDS011;18201;50.978;7.034;2022-10-15T00:41:57;5.45;;;4.95;;
31596;SDS011;18201;50.978;7.034;2022-10-15T00:42:29;6.18;;;5.57;;
31596;SDS011;18201;50.978;7.034;2022-10-15T00:43:00;6.20;;;5.60;;
31596;SDS011;18201;50.978;7.034;2022-10-15T00:43:34;6.95;;;5.93;;
31596;SDS011;18201;50.978;7.034;2022-10-15T00:45:17;6.43;;;5.90;;
31596;SDS011;18201;50.978;7.034;2022-10-15T00:45:48;8.70;;;6.28;;
31596;SDS011;18201;50.978;7.034;2022-10-15T00:46:20;7.70;;;6.47;;
31596;SDS011;18201;50.978;7.034;2022-10-15T00:46:55;7.78;;;6.40;;
31596;SDS011;18201;50.978;7.034;2022-10-15T00:47:32;7.40;;;6.65;;
31596;SDS011;18201;50.978;7.034;2022-10-15T00:48:08;8.18;;;7.05;;
31596;SDS011;18201;50.978;7.034;2022-10-15T00:48:39;7.97;;;7.28;;
31596;SDS011;18201;50.978;7.034;2022-10-15T00:49:11;7.43;;;6.55;;
31596;SDS011;18201;50.978;7.034;2022-10-15T00:49:50;8.18;;;6.93;;
31596;SDS011;18201;50.978;7.034;2022-10-15T00:50:27;6.68;;;6.10;;
31596;SDS011;18201;50.978;7.034;2022-10-15T00:50:59;9.13;;;6.78;;
31596;SDS011;18201;50.978;7.034;2022-10-15T00:51:34;7.10;;;6.50;;
31596;SDS011;18201;50.978;7.034;2022-10-15T00:52:10;7.75;;;7.00;;
31596;SDS011;18201;50.978;7.034;2022-10-15T00:52:45;6.90;;;6.20;;
31596;SDS011;18201;50.978;7.034;2022-10-15T00:53:26;7.45;;;6.75;;
31596;SDS011;18201;50.978;7.034;2022-10-15T00:53:57;7.88;;;7.07;;
31596;SDS011;18201;50.978;7.034;2022-10-15T00:54:30;8.50;;;6.97;;
31596;SDS011;18201;50.978;7.034;2022-10-15T00:55:06;8.43;;;7.10;;
31596;SDS011;18201;50.978;7.034;2022-10-15T00:55:40;9.73;;;7.38;;
31596;SDS011;18201;50.978;7.034;2022-10-15T00:56:12;9.55;;;8.55;;
31596;SDS011;18201;50.978;7.034;2022-10-15T00:56:48;8.35;;;7.00;;
31596;SDS011;18201;50.978;7.034;2022-10-15T00:57:19;9.20;;;6.85;;
31596;SDS011;18201;50.978;7.034;2022-10-15T00:57:50;8.95;;;7.75;;
31596;SDS011;18201;50.978;7.034;2022-10-15T00:58:24;7.57;;;6.88;;
31596;SDS011;18201;50.978;7.034;2022-10-15T00:58:59;8.20;;;7.50;;
31596;SDS011;18201;50.978;7.034;2022-10-15T00:59:31;8.00;;;7.22;;
31596;SDS011;18201;50.978;7.034;2022-10-15T01:00:07;7.63;;;6.72;;
31596;SDS011;18201;50.978;7.034;2022-10-15T01:00:43;7.75;;;7.05;;
31596;SDS011;18201;50.978;7.034;2022-10-15T01:01:13;8.95;;;8.05;;
31596;SDS011;18201;50.978;7.034;2022-10-15T01:01:44;8.32;;;7.45;;
31596;SDS011;18201;50.978;7.034;2022-10-15T01:02:17;8.80;;;7.93;;
31596;SDS011;18201;50.978;7.034;2022-10-15T01:02:49;9.68;;;8.45;;
31596;SDS011;18201;50.978;7.034;2022-10-15T01:03:20;8.88;;;7.38;;
31596;SDS011;18201;50.978;7.034;2022-10-15T01:03:53;10.45;;;7.55;;
31596;SDS011;18201;50.978;7.034;2022-10-15T01:04:26;9.73;;;8.13;;
31596;SDS011;18201;50.978;7.034;2022-10-15T01:04:58;8.40;;;7.60;;
31596;SDS011;18201;50.978;7.034;2022-10-15T01:05:30;8.25;;;7.45;;
31596;SDS011;18201;50.978;7.034;2022-10-15T01:06:04;9.27;;;8.38;;
31596;SDS011;18201;50.978;7.034;2022-10-15T01:06:37;8.93;;;8.13;;
31596;SDS011;18201;50.978;7.034;2022-10-15T01:07:11;9.45;;;8.38;;
31596;SDS011;18201;50.978;7.034;2022-10-15T01:07:42;9.10;;;8.10;;
31596;SDS011;18201;50.978;7.034;2022-10-15T01:08:14;9.13;;;8.23;;
31596;SDS011;18201;50.978;7.034;2022-10-15T01:08:45;8.55;;;7.75;;
31596;SDS011;18201;50.978;7.034;2022-10-15T01:09:16;11.40;;;8.45;;
31596;SDS011;18201;50.978;7.034;2022-10-15T01:09:48;8.63;;;7.75;;
31596;SDS011;18201;50.978;7.034;2022-10-15T01:10:20;8.38;;;7.63;;
31596;SDS011;18201;50.978;7.034;2022-10-15T01:10:57;9.63;;;8.77;;
31596;SDS011;18201;50.978;7.034;2022-10-15T01:11:37;8.40;;;7.65;;
31596;SDS011;18201;50.978;7.034;2022-10-15T01:12:15;12.27;;;8.57;;
31596;SDS011;18201;50.978;7.034;2022-10-15T01:12:57;8.80;;;8.05;;
31596;SDS011;18201;50.978;7.034;2022-10-15T01:13:41;9.45;;;8.48;;
31596;SDS011;18201;50.978;7.034;2022-10-15T01:14:24;8.32;;;7.55;;
31596;SDS011;18201;50.978;7.034;2022-10-15T01:15:06;9.43;;;8.52;;
31596;SDS011;18201;50.978;7.034;2022-10-15T01:15:47;9.48;;;8.50;;
31596;SDS011;18201;50.978;7.034;2022-10-15T01:16:28;9.60;;;8.70;;
31596;SDS011;18201;50.978;7.034;2022-10-15T01:17:06;9.15;;;8.15;;
31596;SDS011;18201;50.978;7.034;2022-10-15T01:17:49;9.02;;;8.20;;
31596;SDS011;18201;50.978;7.034;2022-10-15T01:18:25;9.48;;;8.52;;
31596;SDS011;18201;50.978;7.034;2022-10-15T01:19:03;10.15;;;9.10;;
31596;SDS011;18201;50.978;7.034;2022-10-15T01:19:48;14.82;;;9.65;;
31596;SDS011;18201;50.978;7.034;2022-10-15T01:20:56;10.02;;;8.95;;
31596;SDS011;18201;50.978;7.034;2022-10-15T01:21:34;12.57;;;9.98;;
31596;SDS011;18201;50.978;7.034;2022-10-15T01:22:10;14.65;;;11.05;;
31596;SDS011;18201;50.978;7.034;2022-10-15T01:22:54;10.27;;;9.38;;
31596;SDS011;18201;50.978;7.034;2022-10-15T01:25:37;10.68;;;9.57;;
31596;SDS011;18201;50.978;7.034;2022-10-15T01:26:24;13.00;;;10.02;;
31596;SDS011;18201;50.978;7.034;2022-10-15T01:27:16;13.10;;;10.60;;
31596;SDS011;18201;50.978;7.034;2022-10-15T01:27:55;12.00;;;9.60;;
31596;SDS011;18201;50.978;7.034;2022-10-15T01:28:30;13.18;;;10.38;;
31596;SDS011;18201;50.978;7.034;2022-10-15T01:29:13;11.02;;;9.93;;
31596;SDS011;18201;50.978;7.034;2022-10-15T01:30:02;15.45;;;10.43;;
31596;SDS011;18201;50.978;7.034;2022-10-15T01:30:51;12.85;;;10.45;;
31596;SDS011;18201;50.978;7.034;2022-10-15T01:31:28;10.25;;;9.23;;
31596;SDS011;18201;50.978;7.034;2022-10-15T01:32:10;11.57;;;10.38;;
31596;SDS011;18201;50.978;7.034;2022-10-15T01:32:49;12.68;;;10.15;;
31596;SDS011;18201;50.978;7.034;2022-10-15T01:33:43;10.63;;;9.55;;
31596;SDS011;18201;50.978;7.034;2022-10-15T01:34:18;11.77;;;9.50;;
31596;SDS011;18201;50.978;7.034;2022-10-15T01:34:54;12.07;;;10.88;;
31596;SDS011;18201;50.978;7.034;2022-10-15T01:35:33;11.10;;;10.00;;
31596;SDS011;18201;50.978;7.034;2022-10-15T01:36:14;10.40;;;9.40;;
31596;SDS011;18201;50.978;7.034;2022-10-15T01:36:50;11.18;;;9.55;;
31596;SDS011;18201;50.978;7.034;2022-10-15T01:37:26;12.02;;;10.52;;
31596;SDS011;18201;50.978;7.034;2022-10-15T01:38:08;11.95;;;10.70;;
31596;SDS011;18201;50.978;7.034;2022-10-15T01:38:48;13.10;;;10.45;;
31596;SDS011;18201;50.978;7.034;2022-10-15T01:39:24;15.55;;;10.32;;
31596;SDS011;18201;50.978;7.034;2022-10-15T01:40:01;10.63;;;9.63;;
31596;SDS011;18201;50.978;7.034;2022-10-15T01:40:37;13.85;;;10.43;;
31596;SDS011;18201;50.978;7.034;2022-10-15T01:41:15;10.80;;;9.57;;
31596;SDS011;18201;50.978;7.034;2022-10-15T01:41:53;11.37;;;10.17;;
31596;SDS011;18201;50.978;7.034;2022-10-15T01:42:32;11.68;;;10.35;;
31596;SDS011;18201;50.978;7.034;2022-10-15T01:43:10;10.27;;;9.13;;
31596;SDS011;18201;50.978;7.034;2022-10-15T01:43:46;12.18;;;10.10;;
31596;SDS011;18201;50.978;7.034;2022-10-15T01:44:27;11.18;;;9.48;;
31596;SDS011;18201;50.978;7.034;2022-10-15T01:45:01;11.75;;;10.55;;
31596;SDS011;18201;50.978;7.034;2022-10-15T01:45:38;11.68;;;10.48;;
31596;SDS011;18201;50.978;7.034;2022-10-15T01:46:15;11.23;;;10.13;;
31596;SDS011;18201;50.978;7.034;2022-10-15T01:46:50;11.45;;;10.27;;
31596;SDS011;18201;50.978;7.034;2022-10-15T01:47:29;11.73;;;9.95;;
31596;SDS011;18201;50.978;7.034;2022-10-15T01:48:05;11.10;;;9.80;;
31596;SDS011;18201;50.978;7.034;2022-10-15T01:48:39;11.65;;;10.45;;
31596;SDS011;18201;50.978;7.034;2022-10-15T01:49:13;11.45;;;10.35;;
31596;SDS011;18201;50.978;7.034;2022-10-15T01:49:46;10.75;;;9.65;;
31596;SDS011;18201;50.978;7.034;2022-10-15T01:50:19;9.90;;;9.00;;
31596;SDS011;18201;50.978;7.034;2022-10-15T01:50:54;11.38;;;10.10;;
31596;SDS011;18201;50.978;7.034;2022-10-15T01:51:29;11.70;;;10.18;;
31596;SDS011;18201;50.978;7.034;2022-10-15T01:52:04;11.68;;;9.80;;
31596;SDS011;18201;50.978;7.034;2022-10-15T01:52:40;12.05;;;9.98;;
31596;SDS011;18201;50.978;7.034;2022-10-15T01:53:12;12.82;;;11.20;;
31596;SDS011;18201;50.978;7.034;2022-10-15T01:53:46;13.10;;;10.38;;
31596;SDS011;18201;50.978;7.034;2022-10-15T01:54:20;13.98;;;9.85;;
31596;SDS011;18201;50.978;7.034;2022-10-15T01:54:54;11.07;;;9.55;;
31596;SDS011;18201;50.978;7.034;2022-10-15T01:55:25;12.43;;;10.57;;
31596;SDS011;18201;50.978;7.034;2022-10-15T01:55:59;10.45;;;9.45;;
31596;SDS011;18201;50.978;7.034;2022-10-15T01:56:33;11.45;;;10.07;;
31596;SDS011;18201;50.978;7.034;2022-10-15T01:57:06;15.80;;;11.65;;
31596;SDS011;18201;50.978;7.034;2022-10-15T01:57:41;15.13;;;11.30;;
31596;SDS011;18201;50.978;7.034;2022-10-15T01:58:13;12.32;;;10.73;;
31596;SDS011;18201;50.978;7.034;2022-10-15T01:58:46;11.15;;;10.00;;
31596;SDS011;18201;50.978;7.034;2022-10-15T01:59:21;11.02;;;9.93;;
31596;SDS011;18201;50.978;7.034;2022-10-15T01:59:54;11.93;;;10.23;;
31596;SDS011;18201;50.978;7.034;2022-10-15T02:00:26;10.95;;;9.85;;
31596;SDS011;18201;50.978;7.034;2022-10-15T02:00:57;12.18;;;10.88;;
31596;SDS011;18201;50.978;7.034;2022-10-15T02:01:30;12.35;;;10.93;;
31596;SDS011;18201;50.978;7.034;2022-10-15T02:02:01;11.52;;;10.13;;
31596;SDS011;18201;50.978;7.034;2022-10-15T02:02:33;14.90;;;11.23;;
31596;SDS011;18201;50.978;7.034;2022-10-15T02:03:04;12.43;;;10.88;;
31596;SDS011;18201;50.978;7.034;2022-10-15T02:03:42;11.65;;;10.15;;
31596;SDS011;18201;50.978;7.034;2022-10-15T02:04:20;12.45;;;10.85;;
31596;SDS011;18201;50.978;7.034;2022-10-15T02:04:52;12.00;;;10.75;;
31596;SDS011;18201;50.978;7.034;2022-10-15T02:05:24;13.52;;;10.27;;
31596;SDS011;18201;50.978;7.034;2022-10-15T02:06:01;11.80;;;10.38;;
31596;SDS011;18201;50.978;7.034;2022-10-15T02:06:37;11.85;;;10.13;;
31596;SDS011;18201;50.978;7.034;2022-10-15T02:07:12;12.13;;;10.82;;
31596;SDS011;18201;50.978;7.034;2022-10-15T02:07:52;11.88;;;10.65;;
31596;SDS011;18201;50.978;7.034;2022-10-15T02:08:29;12.23;;;10.45;;
31596;SDS011;18201;50.978;7.034;2022-10-15T02:09:06;13.25;;;10.82;;
31596;SDS011;18201;50.978;7.034;2022-10-15T02:10:20;12.38;;;9.68;;
31596;SDS011;18201;50.978;7.034;2022-10-15T02:10:58;13.80;;;10.25;;
31596;SDS011;18201;50.978;7.034;2022-10-15T02:11:37;11.65;;;10.45;;
31596;SDS011;18201;50.978;7.034;2022-10-15T02:12:22;11.27;;;10.10;;
31596;SDS011;18201;50.978;7.034;2022-10-15T02:13:03;11.40;;;10.18;;
31596;SDS011;18201;50.978;7.034;2022-10-15T02:13:45;13.13;;;10.77;;
31596;SDS011;18201;50.978;7.034;2022-10-15T02:14:26;12.30;;;10.05;;
31596;SDS011;18201;50.978;7.034;2022-10-15T02:15:05;13.73;;;11.60;;
31596;SDS011;18201;50.978;7.034;2022-10-15T02:15:43;14.80;;;11.43;;
31596;SDS011;18201;50.978;7.034;2022-10-15T02:16:55;15.70;;;11.13;;
31596;SDS011;18201;50.978;7.034;2022-10-15T02:17:33;12.13;;;10.45;;
31596;SDS011;18201;50.978;7.034;2022-10-15T02:18:09;11.48;;;10.30;;
31596;SDS011;18201;50.978;7.034;2022-10-15T02:18:45;13.73;;;10.27;;
31596;SDS011;18201;50.978;7.034;2022-10-15T02:19:20;11.30;;;10.15;;
31596;SDS011;18201;50.978;7.034;2022-10-15T02:19:59;13.90;;;10.77;;
31596;SDS011;18201;50.978;7.034;2022-10-15T02:20:38;12.00;;;9.95;;
31596;SDS011;18201;50.978;7.034;2022-10-15T02:21:15;10.85;;;9.75;;
31596;SDS011;18201;50.978;7.034;2022-10-15T02:21:51;10.68;;;9.52;;
31596;SDS011;18201;50.978;7.034;2022-10-15T02:22:27;13.38;;;10.50;;
31596;SDS011;18201;50.978;7.034;2022-10-15T02:23:06;11.50;;;10.30;;
31596;SDS011;18201;50.978;7.034;2022-10-15T02:23:40;12.80;;;10.77;;
31596;SDS011;18201;50.978;7.034;2022-10-15T02:24:18;11.32;;;9.73;;
31596;SDS011;18201;50.978;7.034;2022-10-15T02:24:52;12.23;;;10.43;;
31596;SDS011;18201;50.978;7.034;2022-10-15T02:25:26;12.48;;;10.27;;
31596;SDS011;18201;50.978;7.034;2022-10-15T02:25:59;11.00;;;9.75;;
31596;SDS011;18201;50.978;7.034;2022-10-15T02:26:30;11.23;;;10.13;;
31596;SDS011;18201;50.978;7.034;2022-10-15T02:27:02;14.68;;;10.73;;
31596;SDS011;18201;50.978;7.034;2022-10-15T02:27:35;13.20;;;10.18;;
31596;SDS011;18201;50.978;7.034;2022-10-15T02:28:08;13.30;;;10.38;;
31596;SDS011;18201;50.978;7.034;2022-10-15T02:28:44;13.20;;;11.30;;
31596;SDS011;18201;50.978;7.034;2022-10-15T02:29:20;10.82;;;9.77;;
31596;SDS011;18201;50.978;7.034;2022-10-15T02:29:54;13.07;;;10.68;;
31596;SDS011;18201;50.978;7.034;2022-10-15T02:30:27;12.60;;;10.45;;
31596;SDS011;18201;50.978;7.034;2022-10-15T02:31:00;10.82;;;9.73;;
31596;SDS011;18201;50.978;7.034;2022-10-15T02:31:32;11.02;;;9.85;;
31596;SDS011;18201;50.978;7.034;2022-10-15T02:32:07;11.20;;;10.10;;
31596;SDS011;18201;50.978;7.034;2022-10-15T02:32:42;11.68;;;10.48;;
31596;SDS011;18201;50.978;7.034;2022-10-15T02:33:16;11.13;;;9.82;;
31596;SDS011;18201;50.978;7.034;2022-10-15T02:33:48;11.32;;;10.10;;
31596;SDS011;18201;50.978;7.034;2022-10-15T02:34:24;11.93;;;10.48;;
31596;SDS011;18201;50.978;7.034;2022-10-15T02:34:57;12.20;;;10.65;;
31596;SDS011;18201;50.978;7.034;2022-10-15T02:35:28;12.38;;;10.05;;
31596;SDS011;18201;50.978;7.034;2022-10-15T02:36:02;13.05;;;10.48;;
31596;SDS011;18201;50.978;7.034;2022-10-15T02:36:33;11.57;;;10.32;;
31596;SDS011;18201;50.978;7.034;2022-10-15T02:37:08;12.38;;;10.88;;
31596;SDS011;18201;50.978;7.034;2022-10-15T02:37:41;11.10;;;9.90;;
31596;SDS011;18201;50.978;7.034;2022-10-15T02:38:15;11.43;;;10.30;;
31596;SDS011;18201;50.978;7.034;2022-10-15T02:38:49;12.27;;;10.63;;
31596;SDS011;18201;50.978;7.034;2022-10-15T02:39:22;14.18;;;11.02;;
31596;SDS011;18201;50.978;7.034;2022-10-15T02:39:54;11.18;;;9.80;;
31596;SDS011;18201;50.978;7.034;2022-10-15T02:40:26;11.02;;;9.93;;
31596;SDS011;18201;50.978;7.034;2022-10-15T02:41:02;11.52;;;10.32;;
31596;SDS011;18201;50.978;7.034;2022-10-15T02:41:33;17.80;;;11.43;;
31596;SDS011;18201;50.978;7.034;2022-10-15T02:42:05;14.30;;;10.95;;
31596;SDS011;18201;50.978;7.034;2022-10-15T02:42:37;12.35;;;11.10;;
31596;SDS011;18201;50.978;7.034;2022-10-15T02:43:09;12.75;;;11.48;;
31596;SDS011;18201;50.978;7.034;2022-10-15T02:43:42;17.55;;;12.60;;
31596;SDS011;18201;50.978;7.034;2022-10-15T02:44:14;11.77;;;10.57;;
31596;SDS011;18201;50.978;7.034;2022-10-15T02:44:45;18.70;;;12.27;;
31596;SDS011;18201;50.978;7.034;2022-10-15T02:45:16;13.57;;;12.15;;
31596;SDS011;18201;50.978;7.034;2022-10-15T02:45:47;12.63;;;11.43;;
31596;SDS011;18201;50.978;7.034;2022-10-15T02:46:19;12.77;;;11.48;;
31596;SDS011;18201;50.978;7.034;2022-10-15T02:46:50;12.52;;;11.23;;
31596;SDS011;18201;50.978;7.034;2022-10-15T02:47:22;12.35;;;11.02;;
31596;SDS011;18201;50.978;7.034;2022-10-15T02:47:54;13.68;;;10.60;;
31596;SDS011;18201;50.978;7.034;2022-10-15T02:48:25;11.95;;;10.73;;
31596;SDS011;18201;50.978;7.034;2022-10-15T02:48:56;12.30;;;10.90;;
31596;SDS011;18201;50.978;7.034;2022-10-15T02:49:28;11.48;;;9.88;;
31596;SDS011;18201;50.978;7.034;2022-10-15T02:49:59;12.73;;;10.75;;
31596;SDS011;18201;50.978;7.034;2022-10-15T02:50:30;11.93;;;10.75;;
31596;SDS011;18201;50.978;7.034;2022-10-15T02:51:02;10.90;;;9.90;;
31596;SDS011;18201;50.978;7.034;2022-10-15T02:51:34;12.45;;;11.18;;
31596;SDS011;18201;50.978;7.034;2022-10-15T02:52:05;11.40;;;10.27;;
31596;SDS011;18201;50.978;7.034;2022-10-15T02:52:37;13.18;;;11.77;;
31596;SDS011;18201;50.978;7.034;2022-10-15T02:53:08;12.13;;;10.85;;
31596;SDS011;18201;50.978;7.034;2022-10-15T02:53:39;11.68;;;10.52;;
31596;SDS011;18201;50.978;7.034;2022-10-15T02:54:11;12.48;;;11.15;;
31596;SDS011;18201;50.978;7.034;2022-10-15T02:54:42;10.95;;;9.85;;
31596;SDS011;18201;50.978;7.034;2022-10-15T02:55:12;11.98;;;10.80;;
31596;SDS011;18201;50.978;7.034;2022-10-15T02:55:45;11.75;;;10.65;;
31596;SDS011;18201;50.978;7.034;2022-10-15T02:56:16;11.65;;;10.35;;
31596;SDS011;18201;50.978;7.034;2022-10-15T02:56:47;11.15;;;10.05;;
31596;SDS011;18201;50.978;7.034;2022-10-15T02:57:18;11.57;;;10.38;;
31596;SDS011;18201;50.978;7.034;2022-10-15T02:57:49;11.38;;;10.27;;
31596;SDS011;18201;50.978;7.034;2022-10-15T02:58:20;10.98;;;9.90;;
31596;SDS011;18201;50.978;7.034;2022-10-15T02:58:52;12.70;;;10.48;;
31596;SDS011;18201;50.978;7.034;2022-10-15T02:59:23;12.18;;;10.63;;
31596;SDS011;18201;50.978;7.034;2022-10-15T02:59:54;15.98;;;10.30;;
31596;SDS011;18201;50.978;7.034;2022-10-15T03:00:25;12.32;;;10.90;;
31596;SDS011;18201;50.978;7.034;2022-10-15T03:00:56;11.73;;;10.40;;
31596;SDS011;18201;50.978;7.034;2022-10-15T03:01:27;12.80;;;11.25;;
31596;SDS011;18201;50.978;7.034;2022-10-15T03:01:59;15.57;;;11.73;;
31596;SDS011;18201;50.978;7.034;2022-10-15T03:02:31;11.95;;;10.75;;
31596;SDS011;18201;50.978;7.034;2022-10-15T03:03:02;12.30;;;11.00;;
31596;SDS011;18201;50.978;7.034;2022-10-15T03:03:34;12.85;;;11.50;;
31596;SDS011;18201;50.978;7.034;2022-10-15T03:04:05;10.98;;;9.88;;
31596;SDS011;18201;50.978;7.034;2022-10-15T03:04:36;13.35;;;10.85;;
31596;SDS011;18201;50.978;7.034;2022-10-15T03:05:08;11.13;;;9.93;;
31596;SDS011;18201;50.978;7.034;2022-10-15T03:05:40;12.52;;;11.13;;
31596;SDS011;18201;50.978;7.034;2022-10-15T03:06:13;13.13;;;10.90;;
31596;SDS011;18201;50.978;7.034;2022-10-15T03:06:44;12.73;;;11.38;;
31596;SDS011;18201;50.978;7.034;2022-10-15T03:07:16;10.73;;;9.65;;
31596;SDS011;18201;50.978;7.034;2022-10-15T03:07:47;12.18;;;10.88;;
31596;SDS011;18201;50.978;7.034;2022-10-15T03:08:18;14.57;;;11.70;;
31596;SDS011;18201;50.978;7.034;2022-10-15T03:08:49;12.95;;;11.60;;
31596;SDS011;18201;50.978;7.034;2022-10-15T03:09:20;12.25;;;10.43;;
31596;SDS011;18201;50.978;7.034;2022-10-15T03:09:51;13.18;;;11.50;;
31596;SDS011;18201;50.978;7.034;2022-10-15T03:10:22;14.80;;;11.38;;
31596;SDS011;18201;50.978;7.034;2022-10-15T03:10:54;12.38;;;10.90;;
31596;SDS011;18201;50.978;7.034;2022-10-15T03:11:25;12.27;;;10.93;;
31596;SDS011;18201;50.978;7.034;2022-10-15T03:11:56;11.50;;;9.98;;
31596;SDS011;18201;50.978;7.034;2022-10-15T03:12:28;17.05;;;11.25;;
31596;SDS011;18201;50.978;7.034;2022-10-15T03:13:00;11.43;;;10.30;;
31596;SDS011;18201;50.978;7.034;2022-10-15T03:13:34;12.15;;;10.35;;
31596;SDS011;18201;50.978;7.034;2022-10-15T03:14:06;13.93;;;10.95;;
31596;SDS011;18201;50.978;7.034;2022-10-15T03:14:37;12.00;;;10.80;;
31596;SDS011;18201;50.978;7.034;2022-10-15T03:15:08;11.88;;;10.68;;
31596;SDS011;18201;50.978;7.034;2022-10-15T03:15:40;12.38;;;11.07;;
31596;SDS011;18201;50.978;7.034;2022-10-15T03:16:11;12.50;;;10.77;;
31596;SDS011;18201;50.978;7.034;2022-10-15T03:16:42;14.75;;;11.00;;
31596;SDS011;18201;50.978;7.034;2022-10-15T03:17:13;12.18;;;10.98;;
31596;SDS011;18201;50.978;7.034;2022-10-15T03:17:46;14.27;;;10.68;;
31596;SDS011;18201;50.978;7.034;2022-10-15T03:18:17;11.95;;;10.75;;
31596;SDS011;18201;50.978;7.034;2022-10-15T03:18:48;12.07;;;10.43;;
31596;SDS011;18201;50.978;7.034;2022-10-15T03:19:19;11.77;;;10.57;;
31596;SDS011;18201;50.978;7.034;2022-10-15T03:19:50;12.43;;;10.70;;
31596;SDS011;18201;50.978;7.034;2022-10-15T03:20:22;13.45;;;10.95;;
31596;SDS011;18201;50.978;7.034;2022-10-15T03:20:53;11.88;;;10.68;;
31596;SDS011;18201;50.978;7.034;2022-10-15T03:21:25;16.23;;;10.65;;
31596;SDS011;18201;50.978;7.034;2022-10-15T03:21:59;11.45;;;10.23;;
31596;SDS011;18201;50.978;7.034;2022-10-15T03:22:30;11.88;;;10.30;;
31596;SDS011;18201;50.978;7.034;2022-10-15T03:23:01;11.80;;;10.60;;
31596;SDS011;18201;50.978;7.034;2022-10-15T03:23:33;11.68;;;10.43;;
31596;SDS011;18201;50.978;7.034;2022-10-15T03:24:04;12.15;;;10.95;;
31596;SDS011;18201;50.978;7.034;2022-10-15T03:24:36;12.02;;;10.77;;
31596;SDS011;18201;50.978;7.034;2022-10-15T03:25:08;12.00;;;10.20;;
31596;SDS011;18201;50.978;7.034;2022-10-15T03:25:38;11.85;;;10.38;;